Time;durP1;ratioP1;P1;durP2;ratioP2;P2;SDS_P1;SDS_P2;PMS_P1;PMS_P2;Temp;Humidity;BMP_temperature;BMP_pressure;BME280_temperature;BME280_humidity;BME280_pressure;Samples;Min_cycle;Max_cycle;Signal;HPM_P1;HPM_P2
2021/09/19 00:02:04;;;;;;;1.40;1.10;;;15.80;99.90;;;;;;5024999;28;20207;-75
2021/09/19 00:04:29;;;;;;;0.80;0.70;;;15.80;99.90;;;;;;5022836;28;20171;-76
2021/09/19 00:06:55;;;;;;;1.20;0.80;;;15.80;99.90;;;;;;5032094;28;20486;-76
2021/09/19 00:09:20;;;;;;;0.70;0.50;;;15.70;99.90;;;;;;5027233;28;20191;-76
2021/09/19 00:11:46;;;;;;;0.80;0.80;;;15.70;99.90;;;;;;5019170;28;20203;-77
2021/09/19 00:14:13;;;;;;;2.13;0.70;;;15.70;99.90;;;;;;5015968;28;20188;-76
2021/09/19 00:16:39;;;;;;;0.80;0.70;;;15.60;99.90;;;;;;5025685;28;20187;-75
2021/09/19 00:19:07;;;;;;;0.80;0.60;;;15.60;99.90;;;;;;5021445;28;20435;-75
2021/09/19 00:21:33;;;;;;;0.83;0.70;;;15.60;99.90;;;;;;5018325;28;20295;-76
2021/09/19 00:23:58;;;;;;;0.80;0.70;;;15.60;99.90;;;;;;5012796;28;20435;-75
2021/09/19 00:26:24;;;;;;;1.27;0.70;;;15.50;99.90;;;;;;5012610;28;20263;-76
2021/09/19 00:28:49;;;;;;;0.80;0.60;;;15.50;99.90;;;;;;5012792;28;20184;-76
2021/09/19 00:31:15;;;;;;;1.20;1.10;;;15.50;99.90;;;;;;5017378;28;20210;-75
2021/09/19 00:33:40;;;;;;;1.57;0.80;;;15.50;99.90;;;;;;5020646;28;20182;-76
2021/09/19 00:36:06;;;;;;;0.90;0.90;;;15.50;99.90;;;;;;5034500;28;20194;-76
2021/09/19 00:38:31;;;;;;;1.17;0.80;;;15.40;99.90;;;;;;5034426;28;20168;-76
2021/09/19 00:40:57;;;;;;;0.80;0.60;;;15.40;99.90;;;;;;5020604;28;20212;-76
2021/09/19 00:43:22;;;;;;;0.90;0.80;;;15.40;99.90;;;;;;5013993;28;20168;-77
2021/09/19 00:45:48;;;;;;;0.80;0.70;;;15.30;99.90;;;;;;5028646;28;20326;-76
2021/09/19 00:48:14;;;;;;;0.77;0.60;;;15.30;99.90;;;;;;5034017;28;20175;-76
2021/09/19 00:50:39;;;;;;;0.80;0.60;;;15.30;99.90;;;;;;5015537;28;20196;-76
2021/09/19 00:53:06;;;;;;;1.37;1.27;;;15.30;99.90;;;;;;5015911;28;20561;-76
2021/09/19 00:55:31;;;;;;;1.13;1.03;;;15.20;99.90;;;;;;5014608;28;20180;-76
2021/09/19 00:57:57;;;;;;;0.70;0.60;;;15.20;99.90;;;;;;5025568;28;20441;-77
2021/09/19 01:00:27;;;;;;;1.27;1.17;;;15.20;99.90;;;;;;5027410;28;20233;-77
2021/09/19 01:02:54;;;;;;;0.80;0.70;;;15.10;99.90;;;;;;5026489;28;20762;-76
2021/09/19 01:05:21;;;;;;;1.43;1.33;;;15.10;99.90;;;;;;5018167;28;20427;-76
2021/09/19 01:07:48;;;;;;;1.97;1.13;;;15.10;99.90;;;;;;5015484;28;20469;-76
2021/09/19 01:10:15;;;;;;;0.87;0.80;;;15.00;99.90;;;;;;5014481;28;20921;-76
2021/09/19 01:12:42;;;;;;;0.80;0.60;;;15.00;99.90;;;;;;5024381;28;20480;-76
2021/09/19 01:15:09;;;;;;;0.73;0.60;;;15.00;99.90;;;;;;5032629;28;20505;-76
2021/09/19 01:17:39;;;;;;;0.90;0.70;;;15.00;99.90;;;;;;5021272;28;20422;-76
2021/09/19 01:20:09;;;;;;;1.43;1.33;;;15.00;99.90;;;;;;5031287;28;20422;-76
2021/09/19 01:22:36;;;;;;;0.87;0.73;;;15.00;99.90;;;;;;5029872;28;21021;-76
2021/09/19 01:25:05;;;;;;;0.80;0.70;;;15.00;99.90;;;;;;5049788;28;20447;-76
2021/09/19 01:27:30;;;;;;;4.30;1.50;;;14.90;99.90;;;;;;5031656;28;20407;-76
2021/09/19 01:29:56;;;;;;;0.80;0.70;;;14.90;99.90;;;;;;5015236;28;20955;-76
2021/09/19 01:32:22;;;;;;;0.90;0.70;;;14.90;99.90;;;;;;5021980;28;20272;-76
2021/09/19 01:34:49;;;;;;;2.70;0.70;;;14.90;99.90;;;;;;5031716;28;20183;-76
2021/09/19 01:37:15;;;;;;;3.60;1.27;;;14.90;99.90;;;;;;5032938;28;20183;-76
2021/09/19 01:39:41;;;;;;;1.37;0.87;;;14.80;99.90;;;;;;5028916;28;20458;-76
2021/09/19 01:42:07;;;;;;;1.33;1.10;;;14.90;99.90;;;;;;5030958;28;20833;-76
2021/09/19 01:44:32;;;;;;;1.50;0.87;;;14.80;99.90;;;;;;5033417;28;20215;-77
2021/09/19 01:46:58;;;;;;;1.03;0.93;;;14.90;99.90;;;;;;5032482;28;20450;-76
2021/09/19 01:49:23;;;;;;;1.27;1.17;;;14.90;99.90;;;;;;5032098;28;20168;-76
2021/09/19 01:51:49;;;;;;;0.70;0.50;;;14.80;99.90;;;;;;5029635;28;20187;-76
2021/09/19 01:54:16;;;;;;;0.70;0.60;;;14.80;99.90;;;;;;5030045;28;20176;-76
2021/09/19 01:56:42;;;;;;;0.90;0.60;;;14.80;99.90;;;;;;5030720;28;20583;-77
2021/09/19 01:59:07;;;;;;;0.70;0.50;;;14.70;99.90;;;;;;5033397;28;20468;-76
2021/09/19 02:01:33;;;;;;;0.73;0.53;;;14.70;99.90;;;;;;5021957;28;20487;-76
2021/09/19 02:03:59;;;;;;;0.97;0.93;;;14.70;99.90;;;;;;5020622;28;20218;-76
2021/09/19 02:06:24;;;;;;;1.70;1.37;;;14.70;99.90;;;;;;5031180;28;20266;-75
2021/09/19 02:08:50;;;;;;;1.37;1.27;;;14.80;99.90;;;;;;5030240;28;20172;-76
2021/09/19 02:11:17;;;;;;;0.70;0.50;;;14.70;99.90;;;;;;5032898;28;20214;-76
2021/09/19 02:13:44;;;;;;;1.43;1.33;;;14.70;99.90;;;;;;5028499;28;20195;-76
2021/09/19 02:16:10;;;;;;;0.80;0.70;;;14.70;99.90;;;;;;5014886;28;20935;-77
2021/09/19 02:18:36;;;;;;;1.00;0.90;;;14.70;99.90;;;;;;5012089;28;20450;-77
2021/09/19 02:21:07;;;;;;;0.97;0.70;;;14.70;99.90;;;;;;5011921;28;20498;-76
2021/09/19 02:23:33;;;;;;;1.10;0.83;;;14.70;99.90;;;;;;5015900;28;20218;-76
2021/09/19 02:25:59;;;;;;;0.80;0.67;;;14.70;99.90;;;;;;5016011;28;20418;-76
2021/09/19 02:28:25;;;;;;;0.80;0.60;;;14.80;99.90;;;;;;5025056;28;20179;-76
2021/09/19 02:30:52;;;;;;;2.00;0.80;;;14.80;99.90;;;;;;5021975;28;20439;-76
2021/09/19 02:33:17;;;;;;;0.77;0.60;;;14.80;99.90;;;;;;5022706;28;20179;-76
2021/09/19 02:35:43;;;;;;;1.17;0.60;;;14.80;99.90;;;;;;5029536;28;20425;-76
2021/09/19 02:38:09;;;;;;;0.70;0.70;;;14.80;99.90;;;;;;5029440;28;20203;-76
2021/09/19 02:40:34;;;;;;;1.00;0.80;;;14.80;99.90;;;;;;5031701;28;20214;-77
2021/09/19 02:43:01;;;;;;;0.80;0.60;;;14.80;99.90;;;;;;5021825;28;20637;-76
2021/09/19 02:45:26;;;;;;;0.70;0.60;;;14.80;99.90;;;;;;5011466;28;20664;-76
2021/09/19 02:47:52;;;;;;;0.87;0.60;;;14.80;99.90;;;;;;5018931;28;20420;-76
2021/09/19 02:50:23;;;;;;;0.93;0.70;;;14.70;99.90;;;;;;5022238;28;20196;-76
2021/09/19 02:52:49;;;;;;;2.20;2.10;;;14.70;99.90;;;;;;5027148;28;20203;-76
2021/09/19 02:55:16;;;;;;;0.80;0.70;;;14.70;99.90;;;;;;5030074;28;20429;-77
2021/09/19 02:57:42;;;;;;;1.40;1.27;;;14.70;99.90;;;;;;5013615;28;20442;-76
2021/09/19 03:00:12;;;;;;;0.93;0.83;;;14.70;99.90;;;;;;5018879;28;20418;-76
2021/09/19 03:02:37;;;;;;;0.80;0.60;;;14.70;99.90;;;;;;5029141;28;20410;-76
2021/09/19 03:05:04;;;;;;;2.50;1.00;;;14.70;99.90;;;;;;5028736;28;20423;-76
2021/09/19 03:07:30;;;;;;;2.13;1.27;;;14.60;99.90;;;;;;5015710;28;20545;-76
2021/09/19 03:09:55;;;;;;;0.70;0.60;;;14.60;99.90;;;;;;5018281;28;20423;-76
2021/09/19 03:12:21;;;;;;;1.10;0.70;;;14.60;99.90;;;;;;5015389;28;20168;-77
2021/09/19 03:14:46;;;;;;;0.80;0.70;;;14.50;99.90;;;;;;5029048;28;20168;-77
2021/09/19 03:17:12;;;;;;;1.53;0.70;;;14.60;99.90;;;;;;5032132;28;20202;-76
2021/09/19 03:19:37;;;;;;;0.80;0.80;;;14.60;99.90;;;;;;5031569;28;20181;-76
2021/09/19 03:22:03;;;;;;;0.80;0.60;;;14.60;99.90;;;;;;5030246;28;20199;-77
2021/09/19 03:24:28;;;;;;;0.70;0.53;;;14.50;99.90;;;;;;5024728;28;20184;-76
2021/09/19 03:26:54;;;;;;;1.00;0.70;;;14.50;99.90;;;;;;5022689;28;20172;-77
2021/09/19 03:29:20;;;;;;;1.97;0.70;;;14.50;99.90;;;;;;5011504;28;20168;-76
2021/09/19 03:31:46;;;;;;;0.90;0.73;;;14.40;99.90;;;;;;5024572;28;20214;-77
2021/09/19 03:34:12;;;;;;;0.80;0.70;;;14.40;99.90;;;;;;5019866;28;20426;-76
2021/09/19 03:36:38;;;;;;;0.70;0.50;;;14.40;99.90;;;;;;5028833;28;20418;-76
2021/09/19 03:39:04;;;;;;;0.70;0.60;;;14.30;99.90;;;;;;5029718;28;20426;-76
2021/09/19 03:41:29;;;;;;;0.70;0.50;;;14.30;99.90;;;;;;5031763;28;20207;-77
2021/09/19 03:43:56;;;;;;;0.87;0.73;;;14.30;99.90;;;;;;5029277;28;20180;-76
2021/09/19 03:46:22;;;;;;;0.70;0.50;;;14.30;99.90;;;;;;5025308;28;20168;-76
2021/09/19 03:48:47;;;;;;;0.73;0.70;;;14.30;99.90;;;;;;5030066;28;20468;-77
2021/09/19 03:51:13;;;;;;;1.43;0.80;;;14.20;99.90;;;;;;5011933;28;20200;-76
2021/09/19 03:53:38;;;;;;;0.70;0.50;;;14.20;99.90;;;;;;5026503;28;20176;-76
2021/09/19 03:56:04;;;;;;;1.20;1.10;;;14.20;99.90;;;;;;5019331;28;20180;-77
2021/09/19 03:58:30;;;;;;;0.70;0.50;;;14.20;99.90;;;;;;5024624;28;20187;-76
2021/09/19 04:00:55;;;;;;;0.70;0.60;;;14.20;99.90;;;;;;5030144;28;20203;-76
2021/09/19 04:03:21;;;;;;;0.70;0.50;;;14.10;99.90;;;;;;5031697;28;20618;-76
2021/09/19 04:05:46;;;;;;;0.70;0.67;;;14.10;99.90;;;;;;5022269;28;20188;-76
2021/09/19 04:08:12;;;;;;;0.70;0.60;;;14.10;99.90;;;;;;5017814;28;20229;-76
2021/09/19 04:10:37;;;;;;;0.90;0.77;;;14.10;99.90;;;;;;5030014;28;20260;-77
2021/09/19 04:13:03;;;;;;;0.70;0.50;;;14.10;99.90;;;;;;5023164;28;20208;-77
2021/09/19 04:15:28;;;;;;;0.70;0.50;;;14.10;99.90;;;;;;5021081;28;20175;-77
2021/09/19 04:17:54;;;;;;;0.70;0.50;;;14.10;99.90;;;;;;5014434;28;20169;-76
2021/09/19 04:20:19;;;;;;;1.10;0.83;;;14.10;99.90;;;;;;5020845;28;20204;-76
2021/09/19 04:22:45;;;;;;;0.80;0.60;;;14.00;99.90;;;;;;5015474;28;20172;-76
2021/09/19 04:25:11;;;;;;;0.80;0.63;;;13.90;99.90;;;;;;5019653;28;20171;-76
2021/09/19 04:27:36;;;;;;;0.70;0.53;;;14.00;99.90;;;;;;5019668;28;20602;-76
2021/09/19 04:30:04;;;;;;;0.73;0.67;;;14.00;99.90;;;;;;5026684;28;20442;-76
2021/09/19 04:32:29;;;;;;;0.83;0.77;;;13.90;99.90;;;;;;5019614;28;20525;-76
2021/09/19 04:34:55;;;;;;;0.77;0.57;;;14.00;99.90;;;;;;5026856;28;20505;-77
2021/09/19 04:37:21;;;;;;;0.70;0.50;;;13.90;99.90;;;;;;5016686;28;20175;-76
2021/09/19 04:39:46;;;;;;;0.70;0.50;;;13.90;99.90;;;;;;5033299;28;20168;-76
2021/09/19 04:42:13;;;;;;;0.70;0.50;;;13.90;99.90;;;;;;5030650;28;20457;-76
2021/09/19 04:44:39;;;;;;;0.70;0.50;;;13.90;99.90;;;;;;5027447;28;20671;-76
2021/09/19 04:47:05;;;;;;;0.70;0.53;;;13.80;99.90;;;;;;5031908;28;20422;-76
2021/09/19 04:49:31;;;;;;;0.80;0.67;;;13.80;99.90;;;;;;5027530;28;20480;-76
2021/09/19 04:51:56;;;;;;;0.70;0.60;;;13.80;99.90;;;;;;5014859;28;20195;-76
2021/09/19 04:54:22;;;;;;;1.00;0.83;;;13.80;99.90;;;;;;5026645;28;20183;-76
2021/09/19 04:56:47;;;;;;;0.70;0.50;;;13.80;99.90;;;;;;5019735;28;20172;-76
2021/09/19 04:59:13;;;;;;;0.70;0.60;;;13.80;99.90;;;;;;5034037;28;20234;-76
2021/09/19 05:01:38;;;;;;;0.90;0.77;;;13.80;99.90;;;;;;5027128;28;20594;-76
2021/09/19 05:04:04;;;;;;;1.10;0.70;;;13.70;99.90;;;;;;5014678;28;20255;-76
2021/09/19 05:06:29;;;;;;;0.70;0.50;;;13.70;99.90;;;;;;5026268;28;20178;-76
2021/09/19 05:08:55;;;;;;;0.70;0.50;;;13.70;99.90;;;;;;5031736;28;20168;-76
2021/09/19 05:11:20;;;;;;;0.80;0.60;;;13.70;99.90;;;;;;5013271;28;20192;-76
2021/09/19 05:13:46;;;;;;;0.70;0.50;;;13.70;99.90;;;;;;5021847;28;20179;-76
2021/09/19 05:16:11;;;;;;;0.70;0.60;;;13.70;99.90;;;;;;5027111;28;20215;-76
2021/09/19 05:18:37;;;;;;;0.70;0.60;;;13.70;99.90;;;;;;5033541;28;20183;-76
2021/09/19 05:21:03;;;;;;;2.40;0.77;;;13.70;99.90;;;;;;5025110;28;20211;-75
2021/09/19 05:23:29;;;;;;;0.70;0.50;;;13.70;99.90;;;;;;5021622;28;20183;-76
2021/09/19 05:25:55;;;;;;;0.80;0.80;;;13.60;99.90;;;;;;5027738;28;20172;-75
2021/09/19 05:28:21;;;;;;;1.00;1.00;;;13.70;99.90;;;;;;5048938;28;20421;-75
2021/09/19 05:30:46;;;;;;;1.20;1.00;;;13.70;99.90;;;;;;5017912;28;20192;-75
2021/09/19 05:33:12;;;;;;;0.70;0.50;;;13.70;99.90;;;;;;5033216;28;20167;-75
2021/09/19 05:35:37;;;;;;;0.70;0.60;;;13.70;99.90;;;;;;5022176;28;20183;-75
2021/09/19 05:38:06;;;;;;;0.70;0.50;;;13.70;99.90;;;;;;5014527;28;20263;-75
2021/09/19 05:40:33;;;;;;;0.70;0.50;;;13.70;99.90;;;;;;5014410;28;20208;-76
2021/09/19 05:43:03;;;;;;;0.80;0.80;;;13.70;99.90;;;;;;5032566;28;20989;-76
2021/09/19 05:45:30;;;;;;;0.90;0.90;;;13.70;99.90;;;;;;5023517;28;20415;-75
2021/09/19 05:47:55;;;;;;;0.90;0.70;;;13.80;99.90;;;;;;5023477;28;20419;-76
2021/09/19 05:50:22;;;;;;;0.70;0.60;;;13.80;99.90;;;;;;5012810;28;20454;-76
2021/09/19 05:52:47;;;;;;;1.43;1.33;;;13.90;99.90;;;;;;5014206;28;20172;-75
2021/09/19 05:55:13;;;;;;;1.67;0.80;;;13.90;99.90;;;;;;5031272;28;20776;-76
2021/09/19 05:57:38;;;;;;;0.97;0.63;;;13.90;99.90;;;;;;5014221;28;20184;-76
2021/09/19 06:00:06;;;;;;;0.70;0.50;;;14.00;99.90;;;;;;5015143;28;20279;-76
2021/09/19 06:02:32;;;;;;;0.90;0.70;;;14.00;99.90;;;;;;5015028;28;20185;-76
2021/09/19 06:04:57;;;;;;;0.70;0.50;;;14.00;99.90;;;;;;5023001;28;20485;-75
2021/09/19 06:07:23;;;;;;;1.07;0.83;;;14.10;99.90;;;;;;5012926;28;20183;-75
2021/09/19 06:09:49;;;;;;;0.97;0.73;;;14.10;99.90;;;;;;5013648;28;20175;-75
2021/09/19 06:12:15;;;;;;;0.70;0.57;;;14.10;99.90;;;;;;5013761;28;20192;-75
2021/09/19 06:14:40;;;;;;;0.70;0.50;;;14.10;99.90;;;;;;5021250;28;20178;-76
2021/09/19 06:17:06;;;;;;;0.80;0.60;;;14.20;99.90;;;;;;5032408;28;20517;-76
2021/09/19 06:19:32;;;;;;;1.37;0.83;;;14.20;99.90;;;;;;5030610;28;20179;-76
2021/09/19 06:21:59;;;;;;;0.70;0.50;;;14.20;99.90;;;;;;5019806;28;20196;-75
2021/09/19 06:24:29;;;;;;;4.27;0.63;;;14.30;99.90;;;;;;5013011;28;20423;-76
2021/09/19 06:26:56;;;;;;;0.97;0.90;;;14.30;99.90;;;;;;5027620;28;20958;-76
2021/09/19 06:29:21;;;;;;;5.83;1.03;;;14.30;99.90;;;;;;5028045;28;20509;-76
2021/09/19 06:31:47;;;;;;;0.80;0.60;;;14.40;99.90;;;;;;5031034;28;20521;-76
2021/09/19 06:34:13;;;;;;;0.80;0.63;;;14.40;99.90;;;;;;5030608;28;20167;-76
2021/09/19 06:36:38;;;;;;;0.80;0.80;;;14.40;99.90;;;;;;5012695;28;20177;-76
2021/09/19 06:39:04;;;;;;;0.70;0.50;;;14.50;99.90;;;;;;5026709;28;20179;-76
2021/09/19 06:41:30;;;;;;;0.80;0.60;;;14.50;99.90;;;;;;5030189;28;20202;-76
2021/09/19 06:43:55;;;;;;;2.90;1.77;;;14.50;99.90;;;;;;5031570;28;20407;-76
2021/09/19 06:46:23;;;;;;;1.00;0.70;;;14.60;99.90;;;;;;5030831;28;20182;-76
2021/09/19 06:48:49;;;;;;;0.90;0.80;;;14.60;99.90;;;;;;5025062;28;20175;-75
2021/09/19 06:51:14;;;;;;;0.70;0.50;;;14.60;99.90;;;;;;5029669;28;20442;-76
2021/09/19 06:53:40;;;;;;;1.43;1.13;;;14.70;99.90;;;;;;5028068;28;20498;-75
2021/09/19 06:56:06;;;;;;;1.00;0.70;;;14.70;99.90;;;;;;5025455;28;20565;-75
2021/09/19 06:58:31;;;;;;;0.73;0.63;;;14.80;99.90;;;;;;5029440;28;20755;-74
2021/09/19 07:00:57;;;;;;;2.50;0.70;;;14.90;99.90;;;;;;5022696;28;20204;-75
2021/09/19 07:03:23;;;;;;;0.70;0.50;;;14.90;99.90;;;;;;5030456;28;20226;-76
2021/09/19 07:05:49;;;;;;;0.70;0.57;;;14.90;99.90;;;;;;5020291;28;20422;-76
2021/09/19 07:08:14;;;;;;;0.90;0.70;;;15.00;99.90;;;;;;5015095;28;20164;-77
2021/09/19 07:10:40;;;;;;;0.77;0.53;;;15.10;99.90;;;;;;5014569;28;20743;-76
2021/09/19 07:13:05;;;;;;;0.70;0.50;;;15.20;99.90;;;;;;5031229;28;20653;-76
2021/09/19 07:15:31;;;;;;;1.43;0.90;;;15.30;99.90;;;;;;5019783;28;20552;-76
2021/09/19 07:17:56;;;;;;;1.00;0.80;;;15.50;99.90;;;;;;5014699;28;20684;-77
2021/09/19 07:20:22;;;;;;;0.70;0.60;;;15.60;99.90;;;;;;5021210;28;20215;-77
2021/09/19 07:22:47;;;;;;;0.70;0.50;;;15.70;99.90;;;;;;5024463;28;20180;-76
2021/09/19 07:25:15;;;;;;;1.77;1.07;;;15.80;99.90;;;;;;5022355;28;20172;-76
2021/09/19 07:27:41;;;;;;;2.03;1.93;;;15.90;99.90;;;;;;5033110;28;20645;-76
2021/09/19 07:30:07;;;;;;;0.70;0.60;;;16.10;99.90;;;;;;5020479;28;20577;-76
2021/09/19 07:32:34;;;;;;;1.77;1.67;;;16.20;99.90;;;;;;5019496;28;20785;-76
2021/09/19 07:35:00;;;;;;;1.23;1.13;;;16.30;99.90;;;;;;5019260;28;20509;-76
2021/09/19 07:37:26;;;;;;;1.20;1.00;;;16.40;99.90;;;;;;5030468;28;20990;-77
2021/09/19 07:39:52;;;;;;;0.73;0.60;;;16.50;99.90;;;;;;5032391;28;20481;-76
2021/09/19 07:42:18;;;;;;;0.90;0.70;;;16.60;99.90;;;;;;5022122;28;20458;-76
2021/09/19 07:44:44;;;;;;;0.77;0.53;;;16.70;99.90;;;;;;5020896;28;20179;-76
2021/09/19 07:47:10;;;;;;;0.90;0.87;;;16.80;99.90;;;;;;5017016;28;20780;-76
2021/09/19 07:49:36;;;;;;;1.00;0.80;;;17.00;99.90;;;;;;5026110;28;20234;-77
2021/09/19 07:52:04;;;;;;;0.70;0.60;;;17.20;99.90;;;;;;5033185;28;20202;-77
2021/09/19 07:54:30;;;;;;;1.47;1.00;;;17.40;99.90;;;;;;5028513;28;20455;-76
2021/09/19 07:56:55;;;;;;;0.80;0.70;;;17.50;99.90;;;;;;5025642;28;21140;-76
2021/09/19 07:59:21;;;;;;;0.77;0.57;;;17.70;99.90;;;;;;5014704;28;20457;-76
2021/09/19 08:01:47;;;;;;;0.80;0.50;;;18.10;99.90;;;;;;5016936;28;20207;-77
2021/09/19 08:04:12;;;;;;;0.80;0.80;;;18.50;99.90;;;;;;5022001;28;20422;-77
2021/09/19 08:06:38;;;;;;;0.80;0.60;;;18.80;99.90;;;;;;5017337;28;20176;-77
2021/09/19 08:09:04;;;;;;;1.50;0.80;;;19.10;99.90;;;;;;5018053;28;20180;-75
2021/09/19 08:11:29;;;;;;;1.00;0.90;;;19.30;99.90;;;;;;5017933;28;20196;-77
2021/09/19 08:14:05;;;;;;;0.80;0.60;;;19.60;99.90;;;;;;5030437;28;20183;-77
2021/09/19 08:16:36;;;;;;;1.17;1.07;;;19.90;99.90;;;;;;5037219;28;20183;-78
2021/09/19 08:19:02;;;;;;;1.50;0.90;;;20.50;99.90;;;;;;5037252;28;20407;-76
2021/09/19 08:21:28;;;;;;;0.80;0.60;;;20.80;99.90;;;;;;5030872;28;20497;-77
2021/09/19 08:23:53;;;;;;;2.60;0.90;;;21.00;99.90;;;;;;5029458;28;20429;-77
2021/09/19 08:26:19;;;;;;;0.80;0.50;;;21.10;99.90;;;;;;5038367;28;20172;-77
2021/09/19 08:28:45;;;;;;;0.80;0.70;;;21.40;99.90;;;;;;5025974;28;20542;-78
2021/09/19 08:31:10;;;;;;;0.90;0.70;;;21.80;99.90;;;;;;5017884;28;20709;-77
2021/09/19 08:33:36;;;;;;;1.23;0.80;;;22.00;99.90;;;;;;5026028;28;21208;-78
2021/09/19 08:36:01;;;;;;;0.87;0.70;;;22.40;99.90;;;;;;5020778;28;20250;-78
2021/09/19 08:38:28;;;;;;;0.90;0.80;;;22.70;99.90;;;;;;5044855;28;20660;-77
2021/09/19 08:40:53;;;;;;;0.90;0.67;;;22.90;99.90;;;;;;5033801;28;20249;-77
2021/09/19 08:43:19;;;;;;;1.17;1.00;;;23.20;99.90;;;;;;5036281;28;20406;-78
2021/09/19 08:45:46;;;;;;;0.80;0.50;;;23.50;99.90;;;;;;5020448;28;20650;-77
2021/09/19 08:48:12;;;;;;;0.90;0.70;;;24.10;99.90;;;;;;5017086;28;20183;-78
2021/09/19 08:50:38;;;;;;;1.10;0.83;;;24.50;99.90;;;;;;5017727;28;20443;-78
2021/09/19 08:53:03;;;;;;;1.20;0.70;;;24.50;99.90;;;;;;5016394;28;20423;-78
2021/09/19 08:55:29;;;;;;;0.80;0.60;;;25.00;99.90;;;;;;5022742;28;20232;-79
2021/09/19 08:57:54;;;;;;;1.20;0.77;;;25.50;99.90;;;;;;5053025;28;20244;-78
2021/09/19 09:00:20;;;;;;;1.23;0.80;;;25.40;99.90;;;;;;5033795;28;20199;-76
2021/09/19 09:02:54;;;;;;;0.90;0.73;;;24.90;99.90;;;;;;5033780;28;20297;-76
2021/09/19 09:05:35;;;;;;;1.00;0.70;;;25.00;99.90;;;;;;5025108;28;20171;-76
2021/09/19 09:08:00;;;;;;;0.90;0.70;;;24.90;99.90;;;;;;5023360;28;20485;-77
2021/09/19 09:10:46;;;;;;;0.80;0.67;;;25.00;99.90;;;;;;5018175;28;20439;-77
2021/09/19 09:13:15;;;;;;;1.00;0.70;;;25.00;99.90;;;;;;5019668;28;20179;-76
2021/09/19 09:15:50;;;;;;;0.90;0.80;;;25.00;99.90;;;;;;5029897;28;20425;-77
2021/09/19 09:18:29;;;;;;;0.87;0.70;;;25.00;99.90;;;;;;5035811;28;20426;-77
2021/09/19 09:20:58;;;;;;;0.80;0.60;;;25.10;99.90;;;;;;5035765;28;20470;-77
2021/09/19 09:23:28;;;;;;;1.00;0.60;;;25.30;99.90;;;;;;5023603;28;20423;-76
2021/09/19 09:26:17;;;;;;;1.13;1.00;;;25.50;99.90;;;;;;5031848;28;20418;-77
2021/09/19 09:28:50;;;;;;;0.80;0.50;;;26.00;99.90;;;;;;5021046;28;20426;-77
2021/09/19 09:31:33;;;;;;;0.80;0.60;;;26.70;99.90;;;;;;5020054;28;20494;-78
2021/09/19 09:34:06;;;;;;;0.90;0.70;;;26.60;99.90;;;;;;5029593;28;20425;-78
2021/09/19 09:36:51;;;;;;;1.37;1.27;;;27.10;99.90;;;;;;5037944;28;20493;-78
2021/09/19 09:39:27;;;;;;;1.30;0.70;;;27.40;99.90;;;;;;5018949;28;20450;-78
2021/09/19 09:41:57;;;;;;;0.80;0.70;;;27.80;99.00;;;;;;5017738;28;20466;-77
2021/09/19 09:44:31;;;;;;;0.90;0.70;;;28.40;98.50;;;;;;5030723;28;20422;-77
2021/09/19 09:46:59;;;;;;;0.90;0.60;;;28.80;92.10;;;;;;5032035;28;20423;-76
2021/09/19 09:49:42;;;;;;;0.80;0.70;;;29.20;92.80;;;;;;5020920;28;20459;-79
2021/09/19 09:52:19;;;;;;;2.03;0.73;;;28.80;89.50;;;;;;5019195;28;20419;-78
2021/09/19 09:54:46;;;;;;;0.80;0.60;;;28.80;87.70;;;;;;5027632;28;20451;-77
2021/09/19 09:57:15;;;;;;;0.90;0.70;;;29.20;87.00;;;;;;5038994;28;20474;-79
2021/09/19 09:59:43;;;;;;;2.03;1.40;;;29.40;85.00;;;;;;5034500;28;20422;-76
2021/09/19 10:02:11;;;;;;;1.30;0.77;;;29.20;79.60;;;;;;5052673;28;20479;-77
2021/09/19 10:04:37;;;;;;;0.90;0.70;;;29.40;81.60;;;;;;5046632;28;20818;-77
2021/09/19 10:07:03;;;;;;;1.00;0.80;;;29.30;80.40;;;;;;5035666;28;20410;-78
2021/09/19 10:09:29;;;;;;;0.80;0.70;;;29.90;81.10;;;;;;5030459;28;20183;-78
2021/09/19 10:11:55;;;;;;;1.00;0.80;;;30.10;80.70;;;;;;5026920;28;20438;-79
2021/09/19 10:14:21;;;;;;;0.90;0.70;;;30.40;77.10;;;;;;5025466;28;20484;-78
2021/09/19 10:16:48;;;;;;;0.93;0.70;;;29.80;74.40;;;;;;5016826;28;20180;-79
2021/09/19 10:19:14;;;;;;;0.90;0.70;;;29.80;73.30;;;;;;5030536;28;20433;-78
2021/09/19 10:21:44;;;;;;;0.87;0.70;;;29.70;72.10;;;;;;5035294;28;20548;-77
2021/09/19 10:24:11;;;;;;;0.90;0.70;;;29.70;71.20;;;;;;5016671;28;20426;-78
2021/09/19 10:26:51;;;;;;;0.90;0.70;;;28.90;71.00;;;;;;5017264;28;20420;-77
2021/09/19 10:29:19;;;;;;;0.80;0.60;;;29.00;72.80;;;;;;5032983;28;20425;-77
2021/09/19 10:31:44;;;;;;;0.90;0.80;;;29.30;75.90;;;;;;5025674;28;20936;-78
2021/09/19 10:34:10;;;;;;;1.00;0.70;;;29.80;73.80;;;;;;5036664;28;20436;-78
2021/09/19 10:36:42;;;;;;;1.87;1.10;;;29.80;71.80;;;;;;5019269;28;20215;-77
2021/09/19 10:39:10;;;;;;;1.37;0.87;;;30.30;69.80;;;;;;5021597;28;20462;-78
2021/09/19 10:41:36;;;;;;;1.10;1.00;;;30.30;70.70;;;;;;5017058;28;20853;-78
2021/09/19 10:44:03;;;;;;;1.33;0.90;;;30.20;68.90;;;;;;5015885;28;20419;-77
2021/09/19 10:46:35;;;;;;;1.10;0.90;;;29.80;70.10;;;;;;5033891;28;20625;-77
2021/09/19 10:49:19;;;;;;;0.90;0.70;;;29.10;71.70;;;;;;5016245;28;20415;-77
2021/09/19 10:52:00;;;;;;;0.90;0.60;;;28.90;71.80;;;;;;5015246;28;20431;-76
2021/09/19 10:54:46;;;;;;;1.10;1.00;;;29.10;73.20;;;;;;5032727;28;20442;-78
2021/09/19 10:57:26;;;;;;;0.90;0.77;;;29.70;72.10;;;;;;5019029;28;20932;-77
2021/09/19 11:00:10;;;;;;;1.00;0.90;;;29.90;69.60;;;;;;5025054;28;20496;-77
2021/09/19 11:02:40;;;;;;;4.20;2.60;;;29.70;69.40;;;;;;5035074;28;20507;-78
2021/09/19 11:05:30;;;;;;;0.90;0.70;;;29.70;73.10;;;;;;5026791;28;20915;-77
2021/09/19 11:08:07;;;;;;;1.23;0.83;;;29.20;67.80;;;;;;5032251;28;20426;-76
2021/09/19 11:10:56;;;;;;;0.80;0.70;;;28.00;67.90;;;;;;5032656;28;20509;-76
2021/09/19 11:13:25;;;;;;;0.90;0.73;;;27.80;72.60;;;;;;5012993;28;20411;-76
2021/09/19 11:16:03;;;;;;;1.20;0.73;;;26.70;72.60;;;;;;5013899;28;20419;-76
2021/09/19 11:18:34;;;;;;;0.93;0.77;;;26.30;77.70;;;;;;5013831;28;20421;-76
2021/09/19 11:21:17;;;;;;;0.80;0.60;;;26.00;78.70;;;;;;5011228;28;20520;-76
2021/09/19 11:23:52;;;;;;;0.90;0.70;;;26.00;81.90;;;;;;5016097;28;20575;-76
2021/09/19 11:26:47;;;;;;;1.20;0.73;;;25.80;80.60;;;;;;5046535;28;20418;-76
2021/09/19 11:29:23;;;;;;;0.80;0.60;;;25.60;82.80;;;;;;5022346;28;20788;-76
2021/09/19 11:31:51;;;;;;;0.80;0.60;;;25.40;83.90;;;;;;5029365;28;20444;-76
2021/09/19 11:34:23;;;;;;;1.93;1.47;;;25.40;91.50;;;;;;5031018;28;20505;-75
2021/09/19 11:36:55;;;;;;;0.90;0.73;;;25.60;93.80;;;;;;5026416;28;20423;-76
2021/09/19 11:39:20;;;;;;;1.03;0.90;;;26.00;94.70;;;;;;5026026;28;20431;-76
2021/09/19 11:41:48;;;;;;;0.90;0.70;;;26.20;93.50;;;;;;5012175;28;20508;-76
2021/09/19 11:44:16;;;;;;;1.30;1.20;;;26.20;90.10;;;;;;5017415;28;20220;-76
2021/09/19 11:46:44;;;;;;;0.80;0.70;;;26.00;90.90;;;;;;5013905;28;20406;-76
2021/09/19 11:49:10;;;;;;;1.27;0.70;;;26.00;89.60;;;;;;5014310;28;20411;-75
2021/09/19 11:51:38;;;;;;;1.43;1.00;;;25.90;91.40;;;;;;5012176;28;20442;-76
2021/09/19 11:54:04;;;;;;;1.03;0.90;;;26.10;92.70;;;;;;5013071;28;20187;-76
2021/09/19 11:56:30;;;;;;;1.10;0.90;;;26.60;93.30;;;;;;5023187;28;20422;-76
2021/09/19 11:58:56;;;;;;;1.47;1.10;;;27.40;93.70;;;;;;5031418;28;20668;-75
2021/09/19 12:01:27;;;;;;;0.80;0.60;;;27.60;91.90;;;;;;5025396;28;20462;-76
2021/09/19 12:04:03;;;;;;;0.90;0.70;;;27.50;84.40;;;;;;5012405;28;20210;-76
2021/09/19 12:06:29;;;;;;;0.90;0.63;;;27.40;82.80;;;;;;5013048;28;20417;-76
2021/09/19 12:08:55;;;;;;;0.80;0.60;;;26.90;83.70;;;;;;5024111;28;20493;-76
2021/09/19 12:11:20;;;;;;;1.20;0.70;;;26.80;86.30;;;;;;5015372;28;20196;-76
2021/09/19 12:13:48;;;;;;;0.80;0.60;;;26.60;88.90;;;;;;5011815;28;20168;-76
2021/09/19 12:16:18;;;;;;;1.00;0.90;;;26.50;88.70;;;;;;5026212;28;20653;-76
2021/09/19 12:18:46;;;;;;;1.07;0.70;;;26.20;88.00;;;;;;5019927;28;20415;-76
2021/09/19 12:21:14;;;;;;;0.90;0.63;;;25.90;90.70;;;;;;5010424;28;20463;-76
2021/09/19 12:23:52;;;;;;;1.33;0.80;;;25.80;92.30;;;;;;5011778;28;20406;-76
2021/09/19 12:26:25;;;;;;;0.97;0.87;;;25.70;90.90;;;;;;5028988;28;20438;-76
2021/09/19 12:28:53;;;;;;;5.70;4.73;;;25.50;91.50;;;;;;5023277;28;20769;-77
2021/09/19 12:31:36;;;;;;;1.37;1.27;;;25.30;92.40;;;;;;5015538;28;20493;-76
2021/09/19 12:34:02;;;;;;;0.90;0.70;;;25.00;91.90;;;;;;5023173;28;20415;-76
2021/09/19 12:36:28;;;;;;;0.90;0.70;;;24.80;93.10;;;;;;5013858;28;20515;-76
2021/09/19 12:38:55;;;;;;;0.97;0.77;;;24.60;94.30;;;;;;5015386;28;20450;-76
2021/09/19 12:41:21;;;;;;;0.80;0.60;;;24.30;94.60;;;;;;5027243;28;20461;-76
2021/09/19 12:43:47;;;;;;;1.10;1.00;;;24.10;95.70;;;;;;5027969;28;20926;-76
2021/09/19 12:46:15;;;;;;;1.03;0.70;;;24.10;98.60;;;;;;5015750;28;20498;-77
2021/09/19 12:48:43;;;;;;;1.10;1.00;;;23.80;97.60;;;;;;5015913;28;20485;-76
2021/09/19 12:51:10;;;;;;;1.20;0.87;;;23.70;98.90;;;;;;5023395;28;20825;-76